createdAt,value
2019-02-12T00:00:26.907Z,1.50
2019-02-12T00:06:31.443Z,1.73
2019-02-12T00:12:36.017Z,1.83
2019-02-12T00:18:40.563Z,1.40
2019-02-12T00:24:45.118Z,2.37
2019-02-12T00:30:49.672Z,1.23
2019-02-12T00:36:54.223Z,1.50
2019-02-12T00:42:58.754Z,1.30
2019-02-12T00:49:03.364Z,1.50
2019-02-12T00:55:12.153Z,1.53
2019-02-12T01:01:17.062Z,1.57
2019-02-12T01:07:21.735Z,1.80
2019-02-12T01:13:26.284Z,1.40
2019-02-12T01:19:30.902Z,1.40
2019-02-12T01:25:36.562Z,1.30
2019-02-12T01:31:41.125Z,1.70
2019-02-12T01:37:49.728Z,1.77
2019-02-12T01:43:54.268Z,1.53
2019-02-12T01:49:58.810Z,1.57
2019-02-12T01:56:03.367Z,1.70
2019-02-12T02:02:07.907Z,1.63
2019-02-12T02:08:12.526Z,1.23
2019-02-12T02:14:17.073Z,2.20
2019-02-12T02:20:21.608Z,1.60
2019-02-12T02:26:26.189Z,1.97
2019-02-12T02:32:30.785Z,1.10
2019-02-12T02:38:35.337Z,1.50
2019-02-12T02:44:39.899Z,1.20
2019-02-12T02:50:44.451Z,1.70
2019-02-12T02:56:49.740Z,1.37
2019-02-12T03:02:54.391Z,1.53
2019-02-12T03:08:58.972Z,1.73
2019-02-12T03:15:03.595Z,1.43
2019-02-12T03:21:08.130Z,1.60
2019-02-12T03:27:12.720Z,1.37
2019-02-12T03:33:17.257Z,2.40
2019-02-12T03:39:21.799Z,2.20
2019-02-12T03:45:26.347Z,1.40
2019-02-12T03:51:30.882Z,1.50
2019-02-12T03:57:35.567Z,1.30
2019-02-12T04:03:40.183Z,2.30
2019-02-12T04:09:44.837Z,1.90
2019-02-12T04:15:49.727Z,2.20
2019-02-12T04:21:54.272Z,1.90
2019-02-12T04:27:58.821Z,2.07
2019-02-12T04:34:03.367Z,2.73
2019-02-12T04:40:11.426Z,2.30
2019-02-12T04:46:15.954Z,2.13
2019-02-12T04:52:20.502Z,2.50
2019-02-12T04:58:25.045Z,2.37
2019-02-12T05:04:29.593Z,2.70
2019-02-12T05:10:41.510Z,2.63
2019-02-12T05:16:46.049Z,1.70
2019-02-12T05:22:50.591Z,2.03
2019-02-12T05:28:55.172Z,2.40
2019-02-12T05:34:59.723Z,2.40
2019-02-12T05:41:04.295Z,2.67
2019-02-12T05:47:08.872Z,2.10
2019-02-12T05:53:13.401Z,4.47
2019-02-12T05:59:17.949Z,2.20
2019-02-12T06:05:31.114Z,3.30
2019-02-12T06:11:35.773Z,3.00
2019-02-12T06:17:40.303Z,2.47
2019-02-12T06:23:44.851Z,2.50
2019-02-12T06:29:50.635Z,2.40
2019-02-12T06:35:55.255Z,3.10
2019-02-12T06:41:59.822Z,2.77
2019-02-12T06:48:04.446Z,2.90
2019-02-12T06:54:09.006Z,4.43
2019-02-12T07:00:15.265Z,4.07
2019-02-12T07:06:48.092Z,3.00
2019-02-12T07:13:15.926Z,9.97
2019-02-12T07:19:25.192Z,4.00
2019-02-12T07:25:55.337Z,3.60
2019-02-12T07:32:37.728Z,5.13
2019-02-12T07:39:02.487Z,4.33
2019-02-12T07:45:38.524Z,3.80
2019-02-12T07:51:56.538Z,3.27
2019-02-12T07:58:24.665Z,4.70
2019-02-12T08:04:48.885Z,3.33
2019-02-12T08:11:10.186Z,5.37
2019-02-12T08:17:27.971Z,4.43
2019-02-12T08:23:42.684Z,3.70
2019-02-12T08:30:17.228Z,6.27
2019-02-12T08:36:32.137Z,3.43
2019-02-12T08:42:55.964Z,2.97
2019-02-12T08:49:10.764Z,4.40
2019-02-12T08:55:49.652Z,4.57
2019-02-12T09:02:33.477Z,18.50
2019-02-12T09:09:00.309Z,5.17
2019-02-12T09:15:43.642Z,4.47
2019-02-12T09:22:01.297Z,5.83
2019-02-12T09:28:25.071Z,3.53
2019-02-12T09:34:34.402Z,5.97
2019-02-12T09:41:10.653Z,5.50
2019-02-12T09:47:44.976Z,4.07
2019-02-12T09:53:57.035Z,5.00
2019-02-12T10:00:28.261Z,5.17
2019-02-12T10:06:46.425Z,4.83
2019-02-12T10:13:25.221Z,6.77
2019-02-12T10:19:37.380Z,18.77
2019-02-12T10:25:42.418Z,13.97
2019-02-12T10:31:45.365Z,2.60
2019-02-12T10:37:49.909Z,6.00
2019-02-12T10:43:54.456Z,3.47
2019-02-12T10:49:59.659Z,6.40
2019-02-12T10:56:04.681Z,6.13
2019-02-12T11:02:09.319Z,3.20
2019-02-12T11:08:13.949Z,2.50
2019-02-12T11:14:18.490Z,3.20
2019-02-12T11:20:23.041Z,2.53
2019-02-12T11:26:27.592Z,2.43
2019-02-12T11:32:32.152Z,2.50
2019-02-12T11:38:37.089Z,2.90
2019-02-12T11:44:41.736Z,3.10
2019-02-12T11:50:47.297Z,6.23
2019-02-12T11:56:52.166Z,3.10
2019-02-12T12:02:56.737Z,3.17
2019-02-12T12:09:01.922Z,2.30
2019-02-12T12:15:13.472Z,1.97
2019-02-12T12:21:18.086Z,2.30
2019-02-12T12:27:22.633Z,2.23
2019-02-12T12:33:28.238Z,1.83
2019-02-12T12:39:32.786Z,2.27
2019-02-12T12:45:37.341Z,2.77
2019-02-12T12:51:41.915Z,1.60
2019-02-12T12:57:46.453Z,1.50
2019-02-12T13:03:52.606Z,1.50
2019-02-12T13:09:57.143Z,1.40
2019-02-12T13:16:03.018Z,1.90
2019-02-12T13:22:07.576Z,1.60
2019-02-12T13:28:12.125Z,1.80
2019-02-12T13:34:16.673Z,5.40
2019-02-12T13:40:21.449Z,2.40
2019-02-12T13:46:26.008Z,2.67
2019-02-12T13:52:30.555Z,3.93
2019-02-12T13:58:35.103Z,2.50
2019-02-12T14:04:39.659Z,2.83
2019-02-12T14:10:44.201Z,2.33
2019-02-12T14:16:48.907Z,2.40
2019-02-12T14:22:53.454Z,2.60
2019-02-12T14:28:58.003Z,2.30
2019-02-12T14:35:02.546Z,4.43
2019-02-12T14:41:07.182Z,3.47
2019-02-12T14:47:11.793Z,3.03
2019-02-12T14:53:17.005Z,2.60
2019-02-12T14:59:22.525Z,2.83
2019-02-12T15:05:27.180Z,3.13
2019-02-12T15:11:35.026Z,2.70
2019-02-12T15:17:42.867Z,2.37
2019-02-12T15:23:47.409Z,1.53
2019-02-12T15:29:51.967Z,2.90
2019-02-12T15:35:56.518Z,2.60
2019-02-12T15:42:01.069Z,4.33
2019-02-12T15:48:05.706Z,6.00
2019-02-12T15:54:10.342Z,10.83
2019-02-12T16:00:20.950Z,5.53
2019-02-12T16:06:25.506Z,5.23
2019-02-12T16:12:30.628Z,6.17
2019-02-12T16:18:35.324Z,9.17
2019-02-12T16:24:39.881Z,7.57
2019-02-12T16:30:44.419Z,6.70
2019-02-12T16:36:48.955Z,4.30
2019-02-12T16:42:53.531Z,10.57
2019-02-12T16:48:58.072Z,4.13
2019-02-12T16:55:02.689Z,5.50
2019-02-12T17:01:07.366Z,3.80
2019-02-12T17:07:11.988Z,4.57
2019-02-12T17:13:16.546Z,3.47
2019-02-12T17:19:24.278Z,3.60
2019-02-12T17:25:28.817Z,3.37
2019-02-12T17:31:33.374Z,5.13
2019-02-12T17:37:37.996Z,3.63
2019-02-12T17:43:42.541Z,4.93
2019-02-12T17:49:47.105Z,4.97
2019-02-12T17:55:51.653Z,6.43
2019-02-12T18:01:56.191Z,6.03
2019-02-12T18:08:00.732Z,6.47
2019-02-12T18:14:11.566Z,7.23
2019-02-12T18:20:26.372Z,6.80
2019-02-12T18:26:32.875Z,7.50
2019-02-12T18:32:31.238Z,8.50
2019-02-12T18:38:35.777Z,8.47
2019-02-12T18:44:40.334Z,10.27
2019-02-12T18:50:44.895Z,9.50
2019-02-12T18:56:49.434Z,10.47
2019-02-12T19:02:54.074Z,11.83
2019-02-12T19:08:58.636Z,12.43
2019-02-12T19:15:03.631Z,12.60
2019-02-12T19:21:08.317Z,13.80
2019-02-12T19:27:12.964Z,13.27
2019-02-12T19:33:18.406Z,14.53
2019-02-12T19:39:23.269Z,14.90
2019-02-12T19:45:27.837Z,13.20
2019-02-12T19:51:32.382Z,11.40
2019-02-12T19:57:37.015Z,13.93
2019-02-12T20:03:41.756Z,12.20
2019-02-12T20:09:47.692Z,14.90
2019-02-12T20:15:52.248Z,15.00
2019-02-12T20:21:56.814Z,14.07
2019-02-12T20:28:01.372Z,12.50
2019-02-12T20:34:07.742Z,11.53
2019-02-12T20:40:14.574Z,11.77
2019-02-12T20:46:19.196Z,12.97
2019-02-12T20:52:23.741Z,10.90
2019-02-12T20:58:28.301Z,11.60
2019-02-12T21:04:32.842Z,11.70
2019-02-12T21:10:39.807Z,11.20
2019-02-12T21:16:44.430Z,10.27
2019-02-12T21:22:48.990Z,11.60
2019-02-12T21:28:53.547Z,10.23
2019-02-12T21:34:58.164Z,9.57
2019-02-12T21:41:02.799Z,9.97
2019-02-12T21:47:07.351Z,9.03
2019-02-12T21:53:11.892Z,8.50
2019-02-12T21:59:16.449Z,8.13
2019-02-12T22:05:21.076Z,9.20
2019-02-12T22:11:25.623Z,8.93
2019-02-12T22:17:30.166Z,8.90
2019-02-12T22:23:37.140Z,8.27
2019-02-12T22:29:41.700Z,9.73
2019-02-12T22:35:46.263Z,8.50
2019-02-12T22:41:50.812Z,8.80
2019-02-12T22:47:55.353Z,8.70
2019-02-12T22:53:59.901Z,9.13
2019-02-12T23:00:08.140Z,9.57
2019-02-12T23:06:12.761Z,7.90
2019-02-12T23:12:17.310Z,10.03
2019-02-12T23:18:21.862Z,10.37
2019-02-12T23:24:27.121Z,8.87
2019-02-12T23:30:32.007Z,9.67
2019-02-12T23:36:36.550Z,9.40
2019-02-12T23:42:41.763Z,9.40
2019-02-12T23:48:46.309Z,10.20
2019-02-12T23:54:50.966Z,10.13
